sensor_id;sensor_type;location;lat;lon;timestamp;P1;durP1;ratioP1;P2;durP2;ratioP2
8151;SDS011;4117;53.622;9.958;2023-11-21T00:01:06;18.20;;;11.53;;
8151;SDS011;4117;53.622;9.958;2023-11-21T00:03:35;16.37;;;10.77;;
8151;SDS011;4117;53.622;9.958;2023-11-21T00:06:02;15.87;;;10.57;;
8151;SDS011;4117;53.622;9.958;2023-11-21T00:08:29;17.27;;;10.53;;
8151;SDS011;4117;53.622;9.958;2023-11-21T00:10:56;14.03;;;9.67;;
8151;SDS011;4117;53.622;9.958;2023-11-21T00:13:25;13.93;;;9.97;;
8151;SDS011;4117;53.622;9.958;2023-11-21T00:15:52;14.70;;;9.27;;
8151;SDS011;4117;53.622;9.958;2023-11-21T00:18:20;14.70;;;9.67;;
8151;SDS011;4117;53.622;9.958;2023-11-21T00:20:48;14.37;;;9.80;;
8151;SDS011;4117;53.622;9.958;2023-11-21T00:23:15;13.93;;;9.90;;
8151;SDS011;4117;53.622;9.958;2023-11-21T00:25:43;18.70;;;11.23;;
8151;SDS011;4117;53.622;9.958;2023-11-21T00:28:10;14.30;;;10.80;;
8151;SDS011;4117;53.622;9.958;2023-11-21T00:30:37;17.67;;;10.53;;
8151;SDS011;4117;53.622;9.958;2023-11-21T00:33:04;17.17;;;11.77;;
8151;SDS011;4117;53.622;9.958;2023-11-21T00:35:31;18.67;;;10.83;;
8151;SDS011;4117;53.622;9.958;2023-11-21T00:37:59;18.30;;;10.77;;
8151;SDS011;4117;53.622;9.958;2023-11-21T00:40:26;16.97;;;11.23;;
8151;SDS011;4117;53.622;9.958;2023-11-21T00:42:53;15.00;;;10.63;;
8151;SDS011;4117;53.622;9.958;2023-11-21T00:45:21;15.70;;;10.90;;
8151;SDS011;4117;53.622;9.958;2023-11-21T00:47:48;14.27;;;11.03;;
8151;SDS011;4117;53.622;9.958;2023-11-21T00:50:15;14.43;;;10.63;;
8151;SDS011;4117;53.622;9.958;2023-11-21T00:52:42;16.70;;;10.53;;
8151;SDS011;4117;53.622;9.958;2023-11-21T00:55:10;13.67;;;10.63;;
8151;SDS011;4117;53.622;9.958;2023-11-21T00:57:37;16.23;;;11.17;;
8151;SDS011;4117;53.622;9.958;2023-11-21T01:00:05;19.47;;;12.00;;
8151;SDS011;4117;53.622;9.958;2023-11-21T01:02:36;17.07;;;11.53;;
8151;SDS011;4117;53.622;9.958;2023-11-21T01:05:03;20.07;;;12.60;;
8151;SDS011;4117;53.622;9.958;2023-11-21T01:07:32;17.47;;;12.20;;
8151;SDS011;4117;53.622;9.958;2023-11-21T01:09:59;18.17;;;12.43;;
8151;SDS011;4117;53.622;9.958;2023-11-21T01:12:28;23.30;;;12.70;;
8151;SDS011;4117;53.622;9.958;2023-11-21T01:14:55;18.13;;;12.40;;
8151;SDS011;4117;53.622;9.958;2023-11-21T01:17:22;17.13;;;12.67;;
8151;SDS011;4117;53.622;9.958;2023-11-21T01:19:49;19.57;;;12.50;;
8151;SDS011;4117;53.622;9.958;2023-11-21T01:22:16;17.07;;;12.47;;
8151;SDS011;4117;53.622;9.958;2023-11-21T01:24:47;18.10;;;11.97;;
8151;SDS011;4117;53.622;9.958;2023-11-21T01:27:14;17.83;;;11.40;;
8151;SDS011;4117;53.622;9.958;2023-11-21T01:29:42;14.83;;;10.43;;
8151;SDS011;4117;53.622;9.958;2023-11-21T01:32:09;12.80;;;9.60;;
8151;SDS011;4117;53.622;9.958;2023-11-21T01:34:36;12.23;;;9.50;;
8151;SDS011;4117;53.622;9.958;2023-11-21T01:37:04;15.33;;;9.20;;
8151;SDS011;4117;53.622;9.958;2023-11-21T01:39:31;14.67;;;9.03;;
8151;SDS011;4117;53.622;9.958;2023-11-21T01:41:58;11.73;;;9.03;;
8151;SDS011;4117;53.622;9.958;2023-11-21T01:44:25;13.53;;;10.10;;
8151;SDS011;4117;53.622;9.958;2023-11-21T01:46:53;14.90;;;10.10;;
8151;SDS011;4117;53.622;9.958;2023-11-21T01:49:22;12.63;;;9.17;;
8151;SDS011;4117;53.622;9.958;2023-11-21T01:51:49;10.37;;;8.63;;
8151;SDS011;4117;53.622;9.958;2023-11-21T01:54:17;11.97;;;8.67;;
8151;SDS011;4117;53.622;9.958;2023-11-21T01:56:46;13.00;;;9.20;;
8151;SDS011;4117;53.622;9.958;2023-11-21T01:59:14;9.10;;;7.07;;
8151;SDS011;4117;53.622;9.958;2023-11-21T02:01:46;10.63;;;7.57;;
8151;SDS011;4117;53.622;9.958;2023-11-21T02:04:14;11.13;;;7.83;;
8151;SDS011;4117;53.622;9.958;2023-11-21T02:06:41;9.93;;;7.17;;
8151;SDS011;4117;53.622;9.958;2023-11-21T02:09:08;10.00;;;6.83;;
8151;SDS011;4117;53.622;9.958;2023-11-21T02:11:35;8.80;;;6.20;;
8151;SDS011;4117;53.622;9.958;2023-11-21T02:14:04;8.13;;;5.80;;
8151;SDS011;4117;53.622;9.958;2023-11-21T02:16:33;6.87;;;5.70;;
8151;SDS011;4117;53.622;9.958;2023-11-21T02:19:00;7.77;;;5.93;;
8151;SDS011;4117;53.622;9.958;2023-11-21T02:21:30;9.53;;;5.60;;
8151;SDS011;4117;53.622;9.958;2023-11-21T02:23:59;7.77;;;5.47;;
8151;SDS011;4117;53.622;9.958;2023-11-21T02:26:26;7.27;;;5.70;;
8151;SDS011;4117;53.622;9.958;2023-11-21T02:28:53;7.47;;;5.43;;
8151;SDS011;4117;53.622;9.958;2023-11-21T02:31:19;7.70;;;5.10;;
8151;SDS011;4117;53.622;9.958;2023-11-21T02:33:48;7.53;;;5.03;;
8151;SDS011;4117;53.622;9.958;2023-11-21T02:36:15;6.67;;;5.27;;
8151;SDS011;4117;53.622;9.958;2023-11-21T02:38:41;6.33;;;5.40;;
8151;SDS011;4117;53.622;9.958;2023-11-21T02:41:10;6.10;;;4.90;;
8151;SDS011;4117;53.622;9.958;2023-11-21T02:43:37;7.27;;;5.37;;
8151;SDS011;4117;53.622;9.958;2023-11-21T02:46:04;8.77;;;5.60;;
8151;SDS011;4117;53.622;9.958;2023-11-21T02:48:32;8.37;;;5.23;;
8151;SDS011;4117;53.622;9.958;2023-11-21T02:50:59;5.70;;;4.53;;
8151;SDS011;4117;53.622;9.958;2023-11-21T02:53:26;5.93;;;5.00;;
8151;SDS011;4117;53.622;9.958;2023-11-21T02:55:52;8.37;;;5.40;;
8151;SDS011;4117;53.622;9.958;2023-11-21T02:58:21;6.10;;;5.50;;
8151;SDS011;4117;53.622;9.958;2023-11-21T03:00:48;5.87;;;5.27;;
8151;SDS011;4117;53.622;9.958;2023-11-21T03:03:15;6.27;;;5.40;;
8151;SDS011;4117;53.622;9.958;2023-11-21T03:05:42;7.97;;;5.70;;
8151;SDS011;4117;53.622;9.958;2023-11-21T03:08:09;11.53;;;5.53;;
8151;SDS011;4117;53.622;9.958;2023-11-21T03:10:36;7.70;;;5.40;;
8151;SDS011;4117;53.622;9.958;2023-11-21T03:13:03;9.67;;;5.77;;
8151;SDS011;4117;53.622;9.958;2023-11-21T03:15:31;7.00;;;5.77;;
8151;SDS011;4117;53.622;9.958;2023-11-21T03:18:00;13.03;;;6.37;;
8151;SDS011;4117;53.622;9.958;2023-11-21T03:20:27;7.50;;;5.53;;
8151;SDS011;4117;53.622;9.958;2023-11-21T03:22:55;8.13;;;5.40;;
8151;SDS011;4117;53.622;9.958;2023-11-21T03:25:21;9.40;;;6.17;;
8151;SDS011;4117;53.622;9.958;2023-11-21T03:27:49;7.17;;;6.20;;
8151;SDS011;4117;53.622;9.958;2023-11-21T03:30:16;7.07;;;6.30;;
8151;SDS011;4117;53.622;9.958;2023-11-21T03:32:44;7.33;;;5.97;;
8151;SDS011;4117;53.622;9.958;2023-11-21T03:35:11;7.27;;;6.20;;
8151;SDS011;4117;53.622;9.958;2023-11-21T03:37:38;9.37;;;6.50;;
8151;SDS011;4117;53.622;9.958;2023-11-21T03:40:07;8.13;;;6.00;;
8151;SDS011;4117;53.622;9.958;2023-11-21T03:42:34;6.50;;;5.63;;
8151;SDS011;4117;53.622;9.958;2023-11-21T03:45:01;8.40;;;6.50;;
8151;SDS011;4117;53.622;9.958;2023-11-21T03:47:29;7.53;;;6.07;;
8151;SDS011;4117;53.622;9.958;2023-11-21T03:50:00;6.93;;;6.23;;
8151;SDS011;4117;53.622;9.958;2023-11-21T03:52:28;6.80;;;6.10;;
8151;SDS011;4117;53.622;9.958;2023-11-21T03:54:55;8.80;;;6.07;;
8151;SDS011;4117;53.622;9.958;2023-11-21T03:57:22;8.40;;;6.20;;
8151;SDS011;4117;53.622;9.958;2023-11-21T03:59:49;9.13;;;6.77;;
8151;SDS011;4117;53.622;9.958;2023-11-21T04:02:16;9.40;;;6.10;;
8151;SDS011;4117;53.622;9.958;2023-11-21T04:04:43;8.00;;;6.40;;
8151;SDS011;4117;53.622;9.958;2023-11-21T04:07:11;7.87;;;6.50;;
8151;SDS011;4117;53.622;9.958;2023-11-21T04:09:39;6.77;;;5.93;;
8151;SDS011;4117;53.622;9.958;2023-11-21T04:12:06;8.90;;;6.50;;
8151;SDS011;4117;53.622;9.958;2023-11-21T04:14:34;9.43;;;6.57;;
8151;SDS011;4117;53.622;9.958;2023-11-21T04:17:01;8.73;;;6.30;;
8151;SDS011;4117;53.622;9.958;2023-11-21T04:19:29;9.37;;;7.23;;
8151;SDS011;4117;53.622;9.958;2023-11-21T04:21:56;9.47;;;6.40;;
8151;SDS011;4117;53.622;9.958;2023-11-21T04:24:24;8.53;;;6.27;;
8151;SDS011;4117;53.622;9.958;2023-11-21T04:26:51;10.23;;;6.60;;
8151;SDS011;4117;53.622;9.958;2023-11-21T04:29:18;7.80;;;6.27;;
8151;SDS011;4117;53.622;9.958;2023-11-21T04:31:45;8.17;;;6.57;;
8151;SDS011;4117;53.622;9.958;2023-11-21T04:34:14;9.80;;;6.27;;
8151;SDS011;4117;53.622;9.958;2023-11-21T04:36:41;10.00;;;6.50;;
8151;SDS011;4117;53.622;9.958;2023-11-21T04:39:08;6.97;;;5.90;;
8151;SDS011;4117;53.622;9.958;2023-11-21T04:41:36;7.90;;;6.57;;
8151;SDS011;4117;53.622;9.958;2023-11-21T04:44:04;8.30;;;6.47;;
8151;SDS011;4117;53.622;9.958;2023-11-21T04:46:31;8.07;;;6.40;;
8151;SDS011;4117;53.622;9.958;2023-11-21T04:48:58;7.40;;;6.40;;
8151;SDS011;4117;53.622;9.958;2023-11-21T04:51:25;7.43;;;6.47;;
8151;SDS011;4117;53.622;9.958;2023-11-21T04:53:53;8.63;;;7.23;;
8151;SDS011;4117;53.622;9.958;2023-11-21T04:56:19;9.00;;;6.70;;
8151;SDS011;4117;53.622;9.958;2023-11-21T04:58:48;10.20;;;6.47;;
8151;SDS011;4117;53.622;9.958;2023-11-21T05:01:15;7.10;;;6.40;;
8151;SDS011;4117;53.622;9.958;2023-11-21T05:03:42;7.90;;;6.53;;
8151;SDS011;4117;53.622;9.958;2023-11-21T05:06:09;8.80;;;6.17;;
8151;SDS011;4117;53.622;9.958;2023-11-21T05:08:36;8.37;;;6.17;;
8151;SDS011;4117;53.622;9.958;2023-11-21T05:11:03;7.73;;;6.60;;
8151;SDS011;4117;53.622;9.958;2023-11-21T05:13:33;8.63;;;6.30;;
8151;SDS011;4117;53.622;9.958;2023-11-21T05:16:02;8.37;;;6.60;;
8151;SDS011;4117;53.622;9.958;2023-11-21T05:18:31;8.70;;;6.50;;
8151;SDS011;4117;53.622;9.958;2023-11-21T05:20:59;7.03;;;6.23;;
8151;SDS011;4117;53.622;9.958;2023-11-21T05:23:26;10.13;;;7.00;;
8151;SDS011;4117;53.622;9.958;2023-11-21T05:25:53;8.07;;;6.50;;
8151;SDS011;4117;53.622;9.958;2023-11-21T05:28:21;9.43;;;6.60;;
8151;SDS011;4117;53.622;9.958;2023-11-21T05:30:48;10.07;;;6.67;;
8151;SDS011;4117;53.622;9.958;2023-11-21T05:33:17;7.73;;;6.60;;
8151;SDS011;4117;53.622;9.958;2023-11-21T05:35:44;7.93;;;6.70;;
8151;SDS011;4117;53.622;9.958;2023-11-21T05:38:11;10.27;;;6.27;;
8151;SDS011;4117;53.622;9.958;2023-11-21T05:40:38;8.47;;;6.87;;
8151;SDS011;4117;53.622;9.958;2023-11-21T05:43:04;7.37;;;6.20;;
8151;SDS011;4117;53.622;9.958;2023-11-21T05:45:31;9.83;;;6.47;;
8151;SDS011;4117;53.622;9.958;2023-11-21T05:47:58;10.50;;;6.77;;
8151;SDS011;4117;53.622;9.958;2023-11-21T05:50:27;14.87;;;6.80;;
8151;SDS011;4117;53.622;9.958;2023-11-21T05:52:55;10.73;;;7.00;;
8151;SDS011;4117;53.622;9.958;2023-11-21T05:55:23;7.30;;;6.53;;
8151;SDS011;4117;53.622;9.958;2023-11-21T05:57:51;9.33;;;6.87;;
8151;SDS011;4117;53.622;9.958;2023-11-21T06:00:18;8.40;;;6.67;;
8151;SDS011;4117;53.622;9.958;2023-11-21T06:02:48;7.93;;;6.70;;
8151;SDS011;4117;53.622;9.958;2023-11-21T06:05:18;8.27;;;6.63;;
8151;SDS011;4117;53.622;9.958;2023-11-21T06:07:47;8.47;;;6.87;;
8151;SDS011;4117;53.622;9.958;2023-11-21T06:10:14;11.63;;;6.93;;
8151;SDS011;4117;53.622;9.958;2023-11-21T06:12:42;8.77;;;6.30;;
8151;SDS011;4117;53.622;9.958;2023-11-21T06:15:10;7.67;;;6.67;;
8151;SDS011;4117;53.622;9.958;2023-11-21T06:17:39;10.17;;;7.03;;
8151;SDS011;4117;53.622;9.958;2023-11-21T06:20:07;10.27;;;6.70;;
8151;SDS011;4117;53.622;9.958;2023-11-21T06:22:36;7.67;;;6.33;;
8151;SDS011;4117;53.622;9.958;2023-11-21T06:25:05;9.53;;;6.90;;
8151;SDS011;4117;53.622;9.958;2023-11-21T06:27:34;10.87;;;6.80;;
8151;SDS011;4117;53.622;9.958;2023-11-21T06:30:05;7.30;;;6.47;;
8151;SDS011;4117;53.622;9.958;2023-11-21T06:32:34;6.93;;;6.23;;
8151;SDS011;4117;53.622;9.958;2023-11-21T06:35:02;7.57;;;6.47;;
8151;SDS011;4117;53.622;9.958;2023-11-21T06:37:29;8.53;;;6.80;;
8151;SDS011;4117;53.622;9.958;2023-11-21T06:39:57;12.37;;;6.53;;
8151;SDS011;4117;53.622;9.958;2023-11-21T06:42:25;9.60;;;6.27;;
8151;SDS011;4117;53.622;9.958;2023-11-21T06:44:54;8.37;;;6.43;;
8151;SDS011;4117;53.622;9.958;2023-11-21T06:47:22;8.73;;;6.43;;
8151;SDS011;4117;53.622;9.958;2023-11-21T06:49:50;9.67;;;6.97;;
8151;SDS011;4117;53.622;9.958;2023-11-21T06:52:17;15.07;;;7.57;;
8151;SDS011;4117;53.622;9.958;2023-11-21T06:54:44;8.20;;;6.37;;
8151;SDS011;4117;53.622;9.958;2023-11-21T06:57:12;8.33;;;6.13;;
8151;SDS011;4117;53.622;9.958;2023-11-21T06:59:41;7.40;;;6.47;;
8151;SDS011;4117;53.622;9.958;2023-11-21T07:02:08;8.53;;;7.07;;
8151;SDS011;4117;53.622;9.958;2023-11-21T07:04:35;7.43;;;6.60;;
8151;SDS011;4117;53.622;9.958;2023-11-21T07:07:02;8.10;;;6.77;;
8151;SDS011;4117;53.622;9.958;2023-11-21T07:09:32;8.10;;;7.17;;
8151;SDS011;4117;53.622;9.958;2023-11-21T07:11:59;8.93;;;6.80;;
8151;SDS011;4117;53.622;9.958;2023-11-21T07:14:26;18.90;;;7.10;;
8151;SDS011;4117;53.622;9.958;2023-11-21T07:16:55;10.63;;;6.57;;
8151;SDS011;4117;53.622;9.958;2023-11-21T07:19:22;8.80;;;7.20;;
8151;SDS011;4117;53.622;9.958;2023-11-21T07:21:49;8.77;;;6.67;;
8151;SDS011;4117;53.622;9.958;2023-11-21T07:24:16;8.07;;;6.73;;
8151;SDS011;4117;53.622;9.958;2023-11-21T07:26:43;9.70;;;6.40;;
8151;SDS011;4117;53.622;9.958;2023-11-21T07:29:10;10.10;;;6.83;;
8151;SDS011;4117;53.622;9.958;2023-11-21T07:31:38;7.20;;;6.07;;
8151;SDS011;4117;53.622;9.958;2023-11-21T07:34:07;7.43;;;6.60;;
8151;SDS011;4117;53.622;9.958;2023-11-21T07:36:34;9.43;;;6.23;;
8151;SDS011;4117;53.622;9.958;2023-11-21T07:39:02;7.30;;;6.17;;
8151;SDS011;4117;53.622;9.958;2023-11-21T07:41:29;8.03;;;6.27;;
8151;SDS011;4117;53.622;9.958;2023-11-21T07:43:56;9.50;;;6.07;;
8151;SDS011;4117;53.622;9.958;2023-11-21T07:46:23;7.17;;;5.53;;
8151;SDS011;4117;53.622;9.958;2023-11-21T07:48:51;7.03;;;5.97;;
8151;SDS011;4117;53.622;9.958;2023-11-21T07:51:20;10.53;;;5.50;;
8151;SDS011;4117;53.622;9.958;2023-11-21T07:53:47;6.20;;;5.60;;
8151;SDS011;4117;53.622;9.958;2023-11-21T07:56:14;7.33;;;5.50;;
8151;SDS011;4117;53.622;9.958;2023-11-21T07:58:41;7.40;;;5.50;;
8151;SDS011;4117;53.622;9.958;2023-11-21T08:01:09;8.93;;;6.17;;
8151;SDS011;4117;53.622;9.958;2023-11-21T08:03:36;6.13;;;5.40;;
8151;SDS011;4117;53.622;9.958;2023-11-21T08:06:03;8.47;;;5.50;;
8151;SDS011;4117;53.622;9.958;2023-11-21T08:08:33;9.17;;;6.13;;
8151;SDS011;4117;53.622;9.958;2023-11-21T08:11:00;7.60;;;5.90;;
8151;SDS011;4117;53.622;9.958;2023-11-21T08:13:28;9.43;;;6.00;;
8151;SDS011;4117;53.622;9.958;2023-11-21T08:15:57;6.50;;;5.80;;
8151;SDS011;4117;53.622;9.958;2023-11-21T08:18:27;8.07;;;6.17;;
8151;SDS011;4117;53.622;9.958;2023-11-21T08:20:55;8.53;;;5.50;;
8151;SDS011;4117;53.622;9.958;2023-11-21T08:23:22;6.60;;;5.93;;
8151;SDS011;4117;53.622;9.958;2023-11-21T08:25:52;8.10;;;5.40;;
8151;SDS011;4117;53.622;9.958;2023-11-21T08:28:19;8.17;;;5.33;;
8151;SDS011;4117;53.622;9.958;2023-11-21T08:30:48;11.47;;;5.93;;
8151;SDS011;4117;53.622;9.958;2023-11-21T08:33:15;8.23;;;5.80;;
8151;SDS011;4117;53.622;9.958;2023-11-21T08:35:42;6.17;;;5.57;;
8151;SDS011;4117;53.622;9.958;2023-11-21T08:38:10;8.20;;;5.57;;
8151;SDS011;4117;53.622;9.958;2023-11-21T08:40:37;9.07;;;5.67;;
8151;SDS011;4117;53.622;9.958;2023-11-21T08:43:06;11.00;;;5.53;;
8151;SDS011;4117;53.622;9.958;2023-11-21T08:45:33;8.63;;;6.07;;
8151;SDS011;4117;53.622;9.958;2023-11-21T08:48:00;10.50;;;5.80;;
8151;SDS011;4117;53.622;9.958;2023-11-21T08:50:27;8.13;;;5.87;;
8151;SDS011;4117;53.622;9.958;2023-11-21T08:52:55;9.27;;;5.43;;
8151;SDS011;4117;53.622;9.958;2023-11-21T08:55:22;8.20;;;5.23;;
8151;SDS011;4117;53.622;9.958;2023-11-21T08:57:48;6.87;;;5.33;;
8151;SDS011;4117;53.622;9.958;2023-11-21T09:00:17;8.50;;;5.13;;
8151;SDS011;4117;53.622;9.958;2023-11-21T09:02:44;8.37;;;5.17;;
8151;SDS011;4117;53.622;9.958;2023-11-21T09:05:12;7.30;;;4.97;;
8151;SDS011;4117;53.622;9.958;2023-11-21T09:07:41;6.17;;;4.43;;
8151;SDS011;4117;53.622;9.958;2023-11-21T09:10:09;8.33;;;3.60;;
8151;SDS011;4117;53.622;9.958;2023-11-21T09:12:36;3.70;;;3.13;;
8151;SDS011;4117;53.622;9.958;2023-11-21T09:15:08;6.03;;;3.60;;
8151;SDS011;4117;53.622;9.958;2023-11-21T09:17:38;5.10;;;3.33;;
8151;SDS011;4117;53.622;9.958;2023-11-21T09:20:06;5.23;;;3.00;;
8151;SDS011;4117;53.622;9.958;2023-11-21T09:22:35;3.17;;;2.80;;
8151;SDS011;4117;53.622;9.958;2023-11-21T09:25:02;8.10;;;3.13;;
8151;SDS011;4117;53.622;9.958;2023-11-21T09:27:30;5.83;;;3.47;;
8151;SDS011;4117;53.622;9.958;2023-11-21T09:29:57;4.53;;;2.90;;
8151;SDS011;4117;53.622;9.958;2023-11-21T09:32:24;4.80;;;2.90;;
8151;SDS011;4117;53.622;9.958;2023-11-21T09:34:53;3.43;;;2.70;;
8151;SDS011;4117;53.622;9.958;2023-11-21T09:37:20;5.57;;;2.90;;
8151;SDS011;4117;53.622;9.958;2023-11-21T09:39:52;4.37;;;3.20;;
8151;SDS011;4117;53.622;9.958;2023-11-21T09:42:21;6.23;;;2.90;;
8151;SDS011;4117;53.622;9.958;2023-11-21T09:44:56;3.97;;;2.77;;
8151;SDS011;4117;53.622;9.958;2023-11-21T09:47:29;4.40;;;2.93;;
8151;SDS011;4117;53.622;9.958;2023-11-21T09:49:59;4.77;;;3.27;;
8151;SDS011;4117;53.622;9.958;2023-11-21T09:52:28;5.23;;;3.30;;
8151;SDS011;4117;53.622;9.958;2023-11-21T09:54:57;5.47;;;3.00;;
8151;SDS011;4117;53.622;9.958;2023-11-21T09:57:30;6.20;;;3.27;;
8151;SDS011;4117;53.622;9.958;2023-11-21T09:59:58;4.67;;;3.07;;
8151;SDS011;4117;53.622;9.958;2023-11-21T10:02:29;4.67;;;3.00;;
8151;SDS011;4117;53.622;9.958;2023-11-21T10:05:02;4.07;;;3.10;;
8151;SDS011;4117;53.622;9.958;2023-11-21T10:07:31;4.67;;;3.30;;
8151;SDS011;4117;53.622;9.958;2023-11-21T10:10:00;6.00;;;3.43;;
8151;SDS011;4117;53.622;9.958;2023-11-21T10:12:28;5.07;;;3.10;;
8151;SDS011;4117;53.622;9.958;2023-11-21T10:14:56;4.27;;;2.93;;
8151;SDS011;4117;53.622;9.958;2023-11-21T10:17:26;3.57;;;2.83;;
8151;SDS011;4117;53.622;9.958;2023-11-21T10:19:56;4.57;;;2.93;;
8151;SDS011;4117;53.622;9.958;2023-11-21T10:22:26;3.00;;;2.50;;
8151;SDS011;4117;53.622;9.958;2023-11-21T10:24:53;2.60;;;2.40;;
8151;SDS011;4117;53.622;9.958;2023-11-21T10:27:20;2.80;;;2.47;;
8151;SDS011;4117;53.622;9.958;2023-11-21T10:29:48;7.20;;;2.57;;
8151;SDS011;4117;53.622;9.958;2023-11-21T10:32:17;3.80;;;2.53;;
8151;SDS011;4117;53.622;9.958;2023-11-21T10:34:55;2.50;;;2.30;;
8151;SDS011;4117;53.622;9.958;2023-11-21T10:37:22;3.60;;;2.30;;
8151;SDS011;4117;53.622;9.958;2023-11-21T10:39:51;4.50;;;2.47;;
8151;SDS011;4117;53.622;9.958;2023-11-21T10:42:23;2.80;;;2.50;;
8151;SDS011;4117;53.622;9.958;2023-11-21T10:44:50;3.80;;;2.47;;
8151;SDS011;4117;53.622;9.958;2023-11-21T10:47:18;3.03;;;2.47;;
8151;SDS011;4117;53.622;9.958;2023-11-21T10:49:48;3.97;;;2.37;;
8151;SDS011;4117;53.622;9.958;2023-11-21T10:52:15;5.00;;;2.50;;
8151;SDS011;4117;53.622;9.958;2023-11-21T10:54:45;5.40;;;2.50;;
8151;SDS011;4117;53.622;9.958;2023-11-21T10:57:15;3.57;;;2.80;;
8151;SDS011;4117;53.622;9.958;2023-11-21T10:59:46;3.13;;;2.50;;
8151;SDS011;4117;53.622;9.958;2023-11-21T11:02:17;3.63;;;2.50;;
8151;SDS011;4117;53.622;9.958;2023-11-21T11:04:50;2.90;;;2.50;;
8151;SDS011;4117;53.622;9.958;2023-11-21T11:07:19;3.67;;;2.87;;
8151;SDS011;4117;53.622;9.958;2023-11-21T11:09:48;4.30;;;2.90;;
8151;SDS011;4117;53.622;9.958;2023-11-21T11:12:16;4.17;;;2.43;;
8151;SDS011;4117;53.622;9.958;2023-11-21T11:14:44;4.03;;;2.60;;
8151;SDS011;4117;53.622;9.958;2023-11-21T11:17:13;3.80;;;2.57;;
8151;SDS011;4117;53.622;9.958;2023-11-21T11:19:41;4.17;;;3.17;;
8151;SDS011;4117;53.622;9.958;2023-11-21T11:22:14;3.63;;;2.83;;
8151;SDS011;4117;53.622;9.958;2023-11-21T11:24:57;4.67;;;2.50;;
8151;SDS011;4117;53.622;9.958;2023-11-21T11:27:44;3.87;;;2.67;;
8151;SDS011;4117;53.622;9.958;2023-11-21T11:30:23;4.53;;;2.50;;
8151;SDS011;4117;53.622;9.958;2023-11-21T11:33:04;4.23;;;2.70;;
8151;SDS011;4117;53.622;9.958;2023-11-21T11:35:38;3.83;;;2.70;;
8151;SDS011;4117;53.622;9.958;2023-11-21T11:38:13;4.07;;;2.53;;
8151;SDS011;4117;53.622;9.958;2023-11-21T11:40:40;3.60;;;2.60;;
8151;SDS011;4117;53.622;9.958;2023-11-21T11:43:12;5.27;;;2.90;;
8151;SDS011;4117;53.622;9.958;2023-11-21T11:45:50;4.80;;;2.60;;
8151;SDS011;4117;53.622;9.958;2023-11-21T11:48:19;3.53;;;2.43;;
8151;SDS011;4117;53.622;9.958;2023-11-21T11:51:01;3.53;;;2.97;;
8151;SDS011;4117;53.622;9.958;2023-11-21T11:53:32;3.97;;;2.70;;
8151;SDS011;4117;53.622;9.958;2023-11-21T11:56:21;3.30;;;2.60;;
8151;SDS011;4117;53.622;9.958;2023-11-21T11:58:52;4.43;;;2.80;;
8151;SDS011;4117;53.622;9.958;2023-11-21T12:01:20;3.87;;;2.60;;
8151;SDS011;4117;53.622;9.958;2023-11-21T12:07:00;3.07;;;2.40;;
8151;SDS011;4117;53.622;9.958;2023-11-21T12:09:29;5.73;;;3.00;;
8151;SDS011;4117;53.622;9.958;2023-11-21T12:11:57;4.23;;;2.60;;
8151;SDS011;4117;53.622;9.958;2023-11-21T12:14:26;3.87;;;2.67;;
8151;SDS011;4117;53.622;9.958;2023-11-21T12:16:54;3.23;;;2.57;;
8151;SDS011;4117;53.622;9.958;2023-11-21T12:19:21;3.33;;;2.70;;
8151;SDS011;4117;53.622;9.958;2023-11-21T12:21:49;3.37;;;2.60;;
8151;SDS011;4117;53.622;9.958;2023-11-21T12:24:18;5.67;;;3.20;;
8151;SDS011;4117;53.622;9.958;2023-11-21T12:26:45;3.13;;;2.20;;
8151;SDS011;4117;53.622;9.958;2023-11-21T12:29:13;3.83;;;2.80;;
8151;SDS011;4117;53.622;9.958;2023-11-21T12:31:43;3.67;;;2.80;;
8151;SDS011;4117;53.622;9.958;2023-11-21T12:34:11;4.17;;;2.70;;
8151;SDS011;4117;53.622;9.958;2023-11-21T12:36:38;3.93;;;2.60;;
8151;SDS011;4117;53.622;9.958;2023-11-21T12:39:05;3.27;;;2.50;;
8151;SDS011;4117;53.622;9.958;2023-11-21T12:41:34;5.07;;;2.77;;
8151;SDS011;4117;53.622;9.958;2023-11-21T12:44:01;4.10;;;3.10;;
8151;SDS011;4117;53.622;9.958;2023-11-21T12:46:29;4.63;;;2.87;;
8151;SDS011;4117;53.622;9.958;2023-11-21T12:48:59;3.37;;;2.60;;
8151;SDS011;4117;53.622;9.958;2023-11-21T12:51:27;7.20;;;2.77;;
8151;SDS011;4117;53.622;9.958;2023-11-21T12:53:55;3.37;;;2.47;;
8151;SDS011;4117;53.622;9.958;2023-11-21T12:56:23;4.37;;;2.40;;
8151;SDS011;4117;53.622;9.958;2023-11-21T12:58:53;3.43;;;2.70;;
8151;SDS011;4117;53.622;9.958;2023-11-21T13:01:25;3.87;;;2.53;;
8151;SDS011;4117;53.622;9.958;2023-11-21T13:03:56;3.87;;;2.50;;
8151;SDS011;4117;53.622;9.958;2023-11-21T13:06:30;3.90;;;2.53;;
8151;SDS011;4117;53.622;9.958;2023-11-21T13:09:03;3.03;;;2.30;;
8151;SDS011;4117;53.622;9.958;2023-11-21T13:11:37;4.33;;;2.50;;
8151;SDS011;4117;53.622;9.958;2023-11-21T13:14:06;4.97;;;2.60;;
8151;SDS011;4117;53.622;9.958;2023-11-21T13:16:35;2.83;;;2.43;;
8151;SDS011;4117;53.622;9.958;2023-11-21T13:19:05;4.53;;;2.40;;
8151;SDS011;4117;53.622;9.958;2023-11-21T13:21:34;3.77;;;2.57;;
8151;SDS011;4117;53.622;9.958;2023-11-21T13:24:04;5.47;;;2.90;;
8151;SDS011;4117;53.622;9.958;2023-11-21T13:26:31;2.70;;;2.40;;
8151;SDS011;4117;53.622;9.958;2023-11-21T13:29:02;3.67;;;2.57;;
8151;SDS011;4117;53.622;9.958;2023-11-21T13:31:30;3.43;;;2.70;;
8151;SDS011;4117;53.622;9.958;2023-11-21T13:33:58;3.73;;;2.23;;
8151;SDS011;4117;53.622;9.958;2023-11-21T13:36:31;3.83;;;2.70;;
8151;SDS011;4117;53.622;9.958;2023-11-21T13:39:00;5.03;;;2.70;;
8151;SDS011;4117;53.622;9.958;2023-11-21T13:41:32;4.47;;;2.33;;
8151;SDS011;4117;53.622;9.958;2023-11-21T13:43:59;4.80;;;2.57;;
8151;SDS011;4117;53.622;9.958;2023-11-21T13:46:40;3.90;;;2.67;;
8151;SDS011;4117;53.622;9.958;2023-11-21T13:49:07;5.10;;;2.63;;
8151;SDS011;4117;53.622;9.958;2023-11-21T13:51:36;4.57;;;2.80;;
8151;SDS011;4117;53.622;9.958;2023-11-21T13:54:06;4.00;;;2.73;;
8151;SDS011;4117;53.622;9.958;2023-11-21T13:56:34;4.30;;;2.70;;
8151;SDS011;4117;53.622;9.958;2023-11-21T13:59:02;3.37;;;2.60;;
8151;SDS011;4117;53.622;9.958;2023-11-21T14:01:38;3.53;;;2.60;;
8151;SDS011;4117;53.622;9.958;2023-11-21T14:04:19;3.00;;;2.70;;
8151;SDS011;4117;53.622;9.958;2023-11-21T14:07:02;2.93;;;2.60;;
8151;SDS011;4117;53.622;9.958;2023-11-21T14:09:45;4.97;;;2.53;;
8151;SDS011;4117;53.622;9.958;2023-11-21T14:12:14;3.20;;;2.60;;
8151;SDS011;4117;53.622;9.958;2023-11-21T14:14:41;3.73;;;2.60;;
8151;SDS011;4117;53.622;9.958;2023-11-21T14:17:09;3.90;;;2.73;;
8151;SDS011;4117;53.622;9.958;2023-11-21T14:19:36;3.47;;;2.80;;
8151;SDS011;4117;53.622;9.958;2023-11-21T14:22:07;5.37;;;2.50;;
8151;SDS011;4117;53.622;9.958;2023-11-21T14:24:37;3.53;;;2.73;;
8151;SDS011;4117;53.622;9.958;2023-11-21T14:27:09;4.17;;;2.77;;
8151;SDS011;4117;53.622;9.958;2023-11-21T14:29:36;5.30;;;2.43;;
8151;SDS011;4117;53.622;9.958;2023-11-21T14:32:05;3.93;;;2.60;;
8151;SDS011;4117;53.622;9.958;2023-11-21T14:34:33;2.37;;;2.10;;
8151;SDS011;4117;53.622;9.958;2023-11-21T14:37:00;4.77;;;2.20;;
8151;SDS011;4117;53.622;9.958;2023-11-21T14:39:30;3.23;;;2.43;;
8151;SDS011;4117;53.622;9.958;2023-11-21T14:42:03;3.10;;;2.00;;
8151;SDS011;4117;53.622;9.958;2023-11-21T14:44:35;2.43;;;2.00;;
8151;SDS011;4117;53.622;9.958;2023-11-21T14:47:06;5.97;;;1.97;;
8151;SDS011;4117;53.622;9.958;2023-11-21T14:49:40;4.13;;;2.10;;
8151;SDS011;4117;53.622;9.958;2023-11-21T14:52:17;2.17;;;1.90;;
8151;SDS011;4117;53.622;9.958;2023-11-21T14:54:59;3.17;;;1.90;;
8151;SDS011;4117;53.622;9.958;2023-11-21T14:57:40;5.93;;;2.00;;
8151;SDS011;4117;53.622;9.958;2023-11-21T15:00:08;2.17;;;1.60;;
8151;SDS011;4117;53.622;9.958;2023-11-21T15:02:55;4.33;;;2.40;;
8151;SDS011;4117;53.622;9.958;2023-11-21T15:05:23;3.20;;;1.90;;
8151;SDS011;4117;53.622;9.958;2023-11-21T15:07:50;2.50;;;2.17;;
8151;SDS011;4117;53.622;9.958;2023-11-21T15:10:23;2.27;;;2.07;;
8151;SDS011;4117;53.622;9.958;2023-11-21T15:13:03;2.83;;;2.10;;
8151;SDS011;4117;53.622;9.958;2023-11-21T15:15:30;3.43;;;2.17;;
8151;SDS011;4117;53.622;9.958;2023-11-21T15:17:59;3.30;;;2.20;;
8151;SDS011;4117;53.622;9.958;2023-11-21T15:20:26;2.30;;;1.83;;
8151;SDS011;4117;53.622;9.958;2023-11-21T15:22:54;4.40;;;2.20;;
8151;SDS011;4117;53.622;9.958;2023-11-21T15:25:21;4.83;;;2.33;;